sensor_id;sensor_type;location;lat;lon;timestamp;temperature;humidity
52459;DHT22;38372;52.902;6.024;2023-03-30T00:02:21;12.10;99.90
52459;DHT22;38372;52.902;6.024;2023-03-30T00:04:50;12.10;99.90
52459;DHT22;38372;52.902;6.024;2023-03-30T00:07:17;12.20;99.90
52459;DHT22;38372;52.902;6.024;2023-03-30T00:09:43;12.20;99.90
52459;DHT22;38372;52.902;6.024;2023-03-30T00:12:12;12.20;99.90
52459;DHT22;38372;52.902;6.024;2023-03-30T00:14:40;12.20;99.90
52459;DHT22;38372;52.902;6.024;2023-03-30T00:17:08;12.20;99.90
52459;DHT22;38372;52.902;6.024;2023-03-30T00:19:34;12.20;99.90
52459;DHT22;38372;52.902;6.024;2023-03-30T00:22:07;12.20;99.90
52459;DHT22;38372;52.902;6.024;2023-03-30T00:24:34;12.20;99.90
52459;DHT22;38372;52.902;6.024;2023-03-30T00:27:02;12.20;99.90
52459;DHT22;38372;52.902;6.024;2023-03-30T00:29:28;12.20;99.90
52459;DHT22;38372;52.902;6.024;2023-03-30T00:31:53;12.20;99.90
52459;DHT22;38372;52.902;6.024;2023-03-30T00:34:19;12.10;99.90
52459;DHT22;38372;52.902;6.024;2023-03-30T00:36:45;12.10;99.90
52459;DHT22;38372;52.902;6.024;2023-03-30T00:39:14;12.10;99.90
52459;DHT22;38372;52.902;6.024;2023-03-30T00:41:43;12.10;99.90
52459;DHT22;38372;52.902;6.024;2023-03-30T00:47:15;12.10;99.90
52459;DHT22;38372;52.902;6.024;2023-03-30T00:49:42;12.10;99.90
52459;DHT22;38372;52.902;6.024;2023-03-30T00:52:09;12.10;99.90
52459;DHT22;38372;52.902;6.024;2023-03-30T00:54:37;12.10;99.90
52459;DHT22;38372;52.902;6.024;2023-03-30T00:57:05;12.00;99.90
52459;DHT22;38372;52.902;6.024;2023-03-30T00:59:32;12.00;99.90
52459;DHT22;38372;52.902;6.024;2023-03-30T01:01:58;12.10;99.90
52459;DHT22;38372;52.902;6.024;2023-03-30T01:04:24;12.10;99.90
52459;DHT22;38372;52.902;6.024;2023-03-30T01:06:51;12.10;99.90
52459;DHT22;38372;52.902;6.024;2023-03-30T01:09:17;12.10;99.90
52459;DHT22;38372;52.902;6.024;2023-03-30T01:11:43;12.10;99.90
52459;DHT22;38372;52.902;6.024;2023-03-30T01:14:11;12.10;99.90
52459;DHT22;38372;52.902;6.024;2023-03-30T01:22:07;12.20;99.90
52459;DHT22;38372;52.902;6.024;2023-03-30T01:24:50;12.20;99.90
52459;DHT22;38372;52.902;6.024;2023-03-30T01:30:36;12.30;99.90
52459;DHT22;38372;52.902;6.024;2023-03-30T01:36:01;12.40;99.90
52459;DHT22;38372;52.902;6.024;2023-03-30T01:41:36;12.40;99.90
52459;DHT22;38372;52.902;6.024;2023-03-30T01:44:22;12.40;99.90
52459;DHT22;38372;52.902;6.024;2023-03-30T01:46:56;12.40;99.90
52459;DHT22;38372;52.902;6.024;2023-03-30T01:49:28;12.40;99.90
52459;DHT22;38372;52.902;6.024;2023-03-30T01:54:43;12.30;99.90
52459;DHT22;38372;52.902;6.024;2023-03-30T01:57:49;12.20;99.90
52459;DHT22;38372;52.902;6.024;2023-03-30T02:00:19;12.10;99.90
52459;DHT22;38372;52.902;6.024;2023-03-30T02:03:08;12.10;99.90
52459;DHT22;38372;52.902;6.024;2023-03-30T02:05:35;12.00;99.90
52459;DHT22;38372;52.902;6.024;2023-03-30T02:08:08;12.00;99.90
52459;DHT22;38372;52.902;6.024;2023-03-30T02:10:36;12.00;99.90
52459;DHT22;38372;52.902;6.024;2023-03-30T02:13:04;12.00;99.90
52459;DHT22;38372;52.902;6.024;2023-03-30T02:15:43;12.00;99.90
52459;DHT22;38372;52.902;6.024;2023-03-30T02:18:10;12.00;99.90
52459;DHT22;38372;52.902;6.024;2023-03-30T02:20:36;12.10;99.90
52459;DHT22;38372;52.902;6.024;2023-03-30T02:23:03;12.10;99.90
52459;DHT22;38372;52.902;6.024;2023-03-30T02:25:31;12.20;99.90
52459;DHT22;38372;52.902;6.024;2023-03-30T02:27:57;12.20;99.90
52459;DHT22;38372;52.902;6.024;2023-03-30T02:30:23;12.20;99.90
52459;DHT22;38372;52.902;6.024;2023-03-30T02:32:52;12.20;99.90
52459;DHT22;38372;52.902;6.024;2023-03-30T02:35:43;12.20;99.90
52459;DHT22;38372;52.902;6.024;2023-03-30T02:41:45;12.20;99.90
52459;DHT22;38372;52.902;6.024;2023-03-30T02:44:30;12.20;99.90
52459;DHT22;38372;52.902;6.024;2023-03-30T02:47:19;12.20;99.90
52459;DHT22;38372;52.902;6.024;2023-03-30T02:55:22;12.10;99.90
52459;DHT22;38372;52.902;6.024;2023-03-30T02:57:53;12.00;99.90
52459;DHT22;38372;52.902;6.024;2023-03-30T03:00:37;12.00;99.90
52459;DHT22;38372;52.902;6.024;2023-03-30T03:03:25;12.00;99.90
52459;DHT22;38372;52.902;6.024;2023-03-30T03:05:53;11.90;99.90
52459;DHT22;38372;52.902;6.024;2023-03-30T03:08:23;11.90;99.90
52459;DHT22;38372;52.902;6.024;2023-03-30T03:10:49;11.90;99.90
52459;DHT22;38372;52.902;6.024;2023-03-30T03:13:16;11.90;99.90
52459;DHT22;38372;52.902;6.024;2023-03-30T03:15:43;11.90;99.90
52459;DHT22;38372;52.902;6.024;2023-03-30T03:18:11;12.00;99.90
52459;DHT22;38372;52.902;6.024;2023-03-30T03:20:38;12.00;99.90
52459;DHT22;38372;52.902;6.024;2023-03-30T03:23:04;12.00;99.90
52459;DHT22;38372;52.902;6.024;2023-03-30T03:25:30;12.00;99.90
52459;DHT22;38372;52.902;6.024;2023-03-30T03:27:56;12.10;99.90
52459;DHT22;38372;52.902;6.024;2023-03-30T03:30:23;12.10;99.90
52459;DHT22;38372;52.902;6.024;2023-03-30T03:32:50;12.10;99.90
52459;DHT22;38372;52.902;6.024;2023-03-30T03:35:16;12.20;99.90
52459;DHT22;38372;52.902;6.024;2023-03-30T03:37:42;12.20;99.90
52459;DHT22;38372;52.902;6.024;2023-03-30T03:40:08;12.20;99.90
52459;DHT22;38372;52.902;6.024;2023-03-30T03:42:37;12.20;99.90
52459;DHT22;38372;52.902;6.024;2023-03-30T03:45:03;12.20;99.90
52459;DHT22;38372;52.902;6.024;2023-03-30T03:47:33;12.20;99.90
52459;DHT22;38372;52.902;6.024;2023-03-30T03:49:59;12.20;99.90
52459;DHT22;38372;52.902;6.024;2023-03-30T03:52:29;12.20;99.90
52459;DHT22;38372;52.902;6.024;2023-03-30T03:54:55;12.20;99.90
52459;DHT22;38372;52.902;6.024;2023-03-30T03:57:21;12.10;99.90
52459;DHT22;38372;52.902;6.024;2023-03-30T03:59:50;12.20;99.90
52459;DHT22;38372;52.902;6.024;2023-03-30T04:02:17;12.20;99.90
52459;DHT22;38372;52.902;6.024;2023-03-30T04:04:43;12.20;99.90
52459;DHT22;38372;52.902;6.024;2023-03-30T04:07:09;12.20;99.90
52459;DHT22;38372;52.902;6.024;2023-03-30T04:09:36;12.30;99.90
52459;DHT22;38372;52.902;6.024;2023-03-30T04:12:01;12.30;99.90
52459;DHT22;38372;52.902;6.024;2023-03-30T04:14:27;12.30;99.90
52459;DHT22;38372;52.902;6.024;2023-03-30T04:16:53;12.40;99.90
52459;DHT22;38372;52.902;6.024;2023-03-30T04:19:22;12.30;99.90
52459;DHT22;38372;52.902;6.024;2023-03-30T04:21:50;12.40;99.90
52459;DHT22;38372;52.902;6.024;2023-03-30T04:24:16;12.40;99.90
52459;DHT22;38372;52.902;6.024;2023-03-30T04:26:42;12.50;99.90
52459;DHT22;38372;52.902;6.024;2023-03-30T04:29:14;12.40;99.90
52459;DHT22;38372;52.902;6.024;2023-03-30T04:31:42;12.50;99.90
52459;DHT22;38372;52.902;6.024;2023-03-30T04:34:12;12.50;99.90
52459;DHT22;38372;52.902;6.024;2023-03-30T04:36:38;12.50;99.90
52459;DHT22;38372;52.902;6.024;2023-03-30T04:39:08;12.50;99.90
52459;DHT22;38372;52.902;6.024;2023-03-30T04:41:36;12.50;99.90
52459;DHT22;38372;52.902;6.024;2023-03-30T04:44:04;12.50;99.90
52459;DHT22;38372;52.902;6.024;2023-03-30T04:46:30;12.50;99.90
52459;DHT22;38372;52.902;6.024;2023-03-30T04:48:57;12.50;99.90
52459;DHT22;38372;52.902;6.024;2023-03-30T04:51:23;12.40;99.90
52459;DHT22;38372;52.902;6.024;2023-03-30T04:53:49;12.50;99.90
52459;DHT22;38372;52.902;6.024;2023-03-30T04:56:14;12.50;99.90
52459;DHT22;38372;52.902;6.024;2023-03-30T04:58:41;12.40;99.90
52459;DHT22;38372;52.902;6.024;2023-03-30T05:01:07;12.40;99.90
52459;DHT22;38372;52.902;6.024;2023-03-30T05:03:33;12.40;99.90
52459;DHT22;38372;52.902;6.024;2023-03-30T05:06:00;12.40;99.90
52459;DHT22;38372;52.902;6.024;2023-03-30T05:08:26;12.30;99.90
52459;DHT22;38372;52.902;6.024;2023-03-30T05:10:52;12.40;99.90
52459;DHT22;38372;52.902;6.024;2023-03-30T05:13:17;12.30;99.90
52459;DHT22;38372;52.902;6.024;2023-03-30T05:15:43;12.30;99.90
52459;DHT22;38372;52.902;6.024;2023-03-30T05:18:09;12.30;99.90
52459;DHT22;38372;52.902;6.024;2023-03-30T05:20:35;12.30;99.90
52459;DHT22;38372;52.902;6.024;2023-03-30T05:23:01;12.30;99.90
52459;DHT22;38372;52.902;6.024;2023-03-30T05:25:27;12.30;99.90
52459;DHT22;38372;52.902;6.024;2023-03-30T05:27:53;12.30;99.90
52459;DHT22;38372;52.902;6.024;2023-03-30T05:30:18;12.30;99.90
52459;DHT22;38372;52.902;6.024;2023-03-30T05:32:44;12.30;99.90
52459;DHT22;38372;52.902;6.024;2023-03-30T05:35:10;12.30;99.90
52459;DHT22;38372;52.902;6.024;2023-03-30T05:37:36;12.30;99.90
52459;DHT22;38372;52.902;6.024;2023-03-30T05:40:03;12.30;99.90
52459;DHT22;38372;52.902;6.024;2023-03-30T05:42:34;12.30;99.90
52459;DHT22;38372;52.902;6.024;2023-03-30T05:45:01;12.30;99.90
52459;DHT22;38372;52.902;6.024;2023-03-30T05:47:27;12.30;99.90
52459;DHT22;38372;52.902;6.024;2023-03-30T05:49:53;12.30;99.90
52459;DHT22;38372;52.902;6.024;2023-03-30T05:52:19;12.30;99.90
52459;DHT22;38372;52.902;6.024;2023-03-30T05:54:46;12.30;99.90
52459;DHT22;38372;52.902;6.024;2023-03-30T05:57:11;12.30;99.90
52459;DHT22;38372;52.902;6.024;2023-03-30T05:59:37;12.30;99.90
52459;DHT22;38372;52.902;6.024;2023-03-30T06:02:04;12.40;99.90
52459;DHT22;38372;52.902;6.024;2023-03-30T06:04:31;12.30;99.90
52459;DHT22;38372;52.902;6.024;2023-03-30T06:06:58;12.40;99.90
52459;DHT22;38372;52.902;6.024;2023-03-30T06:09:24;12.40;99.90
52459;DHT22;38372;52.902;6.024;2023-03-30T06:11:51;12.40;99.90
52459;DHT22;38372;52.902;6.024;2023-03-30T06:14:17;12.40;99.90
52459;DHT22;38372;52.902;6.024;2023-03-30T06:16:43;12.40;99.90
52459;DHT22;38372;52.902;6.024;2023-03-30T06:19:09;12.40;99.90
52459;DHT22;38372;52.902;6.024;2023-03-30T06:21:34;12.40;99.90
52459;DHT22;38372;52.902;6.024;2023-03-30T06:24:00;12.40;99.90
52459;DHT22;38372;52.902;6.024;2023-03-30T06:26:26;12.50;99.90
52459;DHT22;38372;52.902;6.024;2023-03-30T06:28:52;12.60;99.90
52459;DHT22;38372;52.902;6.024;2023-03-30T06:31:18;12.60;99.90
52459;DHT22;38372;52.902;6.024;2023-03-30T06:33:44;12.60;99.90
52459;DHT22;38372;52.902;6.024;2023-03-30T06:36:11;12.60;99.90
52459;DHT22;38372;52.902;6.024;2023-03-30T06:38:38;12.60;99.90
52459;DHT22;38372;52.902;6.024;2023-03-30T06:41:04;12.60;99.90
52459;DHT22;38372;52.902;6.024;2023-03-30T06:43:33;12.60;99.90
52459;DHT22;38372;52.902;6.024;2023-03-30T06:45:59;12.50;99.90
52459;DHT22;38372;52.902;6.024;2023-03-30T06:48:25;12.50;99.90
52459;DHT22;38372;52.902;6.024;2023-03-30T06:50:51;12.50;99.90
52459;DHT22;38372;52.902;6.024;2023-03-30T06:53:18;12.40;99.90
52459;DHT22;38372;52.902;6.024;2023-03-30T06:55:48;12.40;99.90
52459;DHT22;38372;52.902;6.024;2023-03-30T06:58:17;12.40;99.90
52459;DHT22;38372;52.902;6.024;2023-03-30T07:00:43;12.40;99.90
52459;DHT22;38372;52.902;6.024;2023-03-30T07:03:09;12.40;99.90
52459;DHT22;38372;52.902;6.024;2023-03-30T07:05:35;12.30;99.90
52459;DHT22;38372;52.902;6.024;2023-03-30T07:08:00;12.30;99.90
52459;DHT22;38372;52.902;6.024;2023-03-30T07:10:26;12.30;99.90
52459;DHT22;38372;52.902;6.024;2023-03-30T07:12:52;12.30;99.90
52459;DHT22;38372;52.902;6.024;2023-03-30T07:15:18;12.30;99.90
52459;DHT22;38372;52.902;6.024;2023-03-30T07:17:43;12.20;99.90
52459;DHT22;38372;52.902;6.024;2023-03-30T07:20:11;12.20;99.90
52459;DHT22;38372;52.902;6.024;2023-03-30T07:22:40;12.20;99.90
52459;DHT22;38372;52.902;6.024;2023-03-30T07:25:07;12.20;99.90
52459;DHT22;38372;52.902;6.024;2023-03-30T07:27:35;12.20;99.90
52459;DHT22;38372;52.902;6.024;2023-03-30T07:30:02;12.20;99.90
52459;DHT22;38372;52.902;6.024;2023-03-30T07:32:28;12.20;99.90
52459;DHT22;38372;52.902;6.024;2023-03-30T07:34:54;12.10;99.90
52459;DHT22;38372;52.902;6.024;2023-03-30T07:37:20;12.10;99.90
52459;DHT22;38372;52.902;6.024;2023-03-30T07:39:45;12.10;99.90
52459;DHT22;38372;52.902;6.024;2023-03-30T07:42:11;12.10;99.90
52459;DHT22;38372;52.902;6.024;2023-03-30T07:44:37;12.10;99.90
52459;DHT22;38372;52.902;6.024;2023-03-30T07:47:03;12.10;99.90
52459;DHT22;38372;52.902;6.024;2023-03-30T07:49:31;12.10;99.90
52459;DHT22;38372;52.902;6.024;2023-03-30T07:51:57;12.10;99.90
52459;DHT22;38372;52.902;6.024;2023-03-30T07:54:24;12.10;99.90
52459;DHT22;38372;52.902;6.024;2023-03-30T07:56:50;12.10;99.90
52459;DHT22;38372;52.902;6.024;2023-03-30T07:59:21;12.10;99.90
52459;DHT22;38372;52.902;6.024;2023-03-30T08:01:48;12.00;99.90
52459;DHT22;38372;52.902;6.024;2023-03-30T08:04:17;12.10;99.90
52459;DHT22;38372;52.902;6.024;2023-03-30T08:06:43;12.00;99.90
52459;DHT22;38372;52.902;6.024;2023-03-30T08:09:10;12.00;99.90
52459;DHT22;38372;52.902;6.024;2023-03-30T08:11:37;12.00;99.90
52459;DHT22;38372;52.902;6.024;2023-03-30T08:14:03;12.00;99.90
52459;DHT22;38372;52.902;6.024;2023-03-30T08:16:30;12.00;99.90
52459;DHT22;38372;52.902;6.024;2023-03-30T08:18:56;12.00;99.90
52459;DHT22;38372;52.902;6.024;2023-03-30T08:21:23;12.00;99.90
52459;DHT22;38372;52.902;6.024;2023-03-30T08:23:53;12.00;99.90
52459;DHT22;38372;52.902;6.024;2023-03-30T08:26:22;12.00;99.90
52459;DHT22;38372;52.902;6.024;2023-03-30T08:28:48;12.00;99.90
52459;DHT22;38372;52.902;6.024;2023-03-30T08:31:14;12.00;99.90
52459;DHT22;38372;52.902;6.024;2023-03-30T08:33:45;12.00;99.90
52459;DHT22;38372;52.902;6.024;2023-03-30T08:36:11;12.10;99.90
52459;DHT22;38372;52.902;6.024;2023-03-30T08:38:38;12.20;99.90
52459;DHT22;38372;52.902;6.024;2023-03-30T08:43:59;12.30;99.90
52459;DHT22;38372;52.902;6.024;2023-03-30T08:46:26;12.30;99.90
52459;DHT22;38372;52.902;6.024;2023-03-30T08:48:54;12.40;99.90
52459;DHT22;38372;52.902;6.024;2023-03-30T08:51:29;12.40;99.90
52459;DHT22;38372;52.902;6.024;2023-03-30T08:53:58;12.50;99.90
52459;DHT22;38372;52.902;6.024;2023-03-30T08:56:29;12.60;99.90
52459;DHT22;38372;52.902;6.024;2023-03-30T09:01:50;12.90;99.90
52459;DHT22;38372;52.902;6.024;2023-03-30T09:10:11;13.00;99.90
52459;DHT22;38372;52.902;6.024;2023-03-30T09:12:38;13.00;99.90
52459;DHT22;38372;52.902;6.024;2023-03-30T09:15:15;13.10;99.90
52459;DHT22;38372;52.902;6.024;2023-03-30T09:17:55;13.10;99.90
52459;DHT22;38372;52.902;6.024;2023-03-30T09:20:29;13.10;99.90
52459;DHT22;38372;52.902;6.024;2023-03-30T09:23:00;13.10;99.90
52459;DHT22;38372;52.902;6.024;2023-03-30T09:25:41;13.10;99.90
52459;DHT22;38372;52.902;6.024;2023-03-30T09:28:30;13.10;99.90
52459;DHT22;38372;52.902;6.024;2023-03-30T09:31:18;13.00;99.90
52459;DHT22;38372;52.902;6.024;2023-03-30T09:34:05;12.90;99.90
52459;DHT22;38372;52.902;6.024;2023-03-30T09:36:43;12.80;99.90
52459;DHT22;38372;52.902;6.024;2023-03-30T09:39:16;12.70;99.90
52459;DHT22;38372;52.902;6.024;2023-03-30T09:44:34;12.80;99.90
52459;DHT22;38372;52.902;6.024;2023-03-30T09:47:18;12.90;99.90
52459;DHT22;38372;52.902;6.024;2023-03-30T09:49:44;12.90;99.90
52459;DHT22;38372;52.902;6.024;2023-03-30T09:52:21;12.90;99.90
52459;DHT22;38372;52.902;6.024;2023-03-30T09:54:48;12.80;99.90
52459;DHT22;38372;52.902;6.024;2023-03-30T09:57:29;12.90;99.90
52459;DHT22;38372;52.902;6.024;2023-03-30T09:59:56;13.00;99.90
52459;DHT22;38372;52.902;6.024;2023-03-30T10:02:24;13.00;99.90
52459;DHT22;38372;52.902;6.024;2023-03-30T10:09:51;13.20;99.90
52459;DHT22;38372;52.902;6.024;2023-03-30T10:12:17;13.20;99.90
52459;DHT22;38372;52.902;6.024;2023-03-30T10:14:44;13.30;99.90
52459;DHT22;38372;52.902;6.024;2023-03-30T10:17:21;13.40;99.90
52459;DHT22;38372;52.902;6.024;2023-03-30T10:20:13;13.40;99.90
52459;DHT22;38372;52.902;6.024;2023-03-30T10:22:48;13.40;99.90
52459;DHT22;38372;52.902;6.024;2023-03-30T10:25:18;13.50;99.90
52459;DHT22;38372;52.902;6.024;2023-03-30T10:27:47;13.50;99.90
52459;DHT22;38372;52.902;6.024;2023-03-30T10:30:18;13.50;99.90
52459;DHT22;38372;52.902;6.024;2023-03-30T10:32:46;13.50;99.90
52459;DHT22;38372;52.902;6.024;2023-03-30T10:35:17;13.70;99.90
52459;DHT22;38372;52.902;6.024;2023-03-30T10:37:45;13.80;99.90
52459;DHT22;38372;52.902;6.024;2023-03-30T10:42:49;14.20;99.90
52459;DHT22;38372;52.902;6.024;2023-03-30T10:45:26;14.40;99.90
52459;DHT22;38372;52.902;6.024;2023-03-30T10:51:04;14.50;99.90
52459;DHT22;38372;52.902;6.024;2023-03-30T10:53:49;14.50;99.90
52459;DHT22;38372;52.902;6.024;2023-03-30T10:56:40;14.50;99.90
52459;DHT22;38372;52.902;6.024;2023-03-30T11:02:58;14.50;99.90
52459;DHT22;38372;52.902;6.024;2023-03-30T11:05:14;14.70;99.90
52459;DHT22;38372;52.902;6.024;2023-03-30T11:08:44;14.90;99.90
52459;DHT22;38372;52.902;6.024;2023-03-30T11:10:55;15.10;99.90
52459;DHT22;38372;52.902;6.024;2023-03-30T11:13:39;15.20;99.90
52459;DHT22;38372;52.902;6.024;2023-03-30T11:16:15;15.40;99.90
52459;DHT22;38372;52.902;6.024;2023-03-30T11:18:58;15.60;99.90
52459;DHT22;38372;52.902;6.024;2023-03-30T11:21:45;15.90;99.90
52459;DHT22;38372;52.902;6.024;2023-03-30T11:24:22;16.40;99.90
52459;DHT22;38372;52.902;6.024;2023-03-30T11:29:45;17.10;99.90
52459;DHT22;38372;52.902;6.024;2023-03-30T11:35:11;16.60;99.90
52459;DHT22;38372;52.902;6.024;2023-03-30T11:40:46;16.10;99.90
52459;DHT22;38372;52.902;6.024;2023-03-30T11:43:15;16.10;99.90
52459;DHT22;38372;52.902;6.024;2023-03-30T11:45:51;16.30;99.90
52459;DHT22;38372;52.902;6.024;2023-03-30T11:57:01;15.70;99.90
52459;DHT22;38372;52.902;6.024;2023-03-30T12:02:09;15.20;99.90
52459;DHT22;38372;52.902;6.024;2023-03-30T12:04:50;14.90;99.90
52459;DHT22;38372;52.902;6.024;2023-03-30T12:07:52;14.60;99.90
52459;DHT22;38372;52.902;6.024;2023-03-30T12:12:48;14.50;99.90
52459;DHT22;38372;52.902;6.024;2023-03-30T12:21:00;15.50;99.90
52459;DHT22;38372;52.902;6.024;2023-03-30T12:23:32;15.70;99.90
52459;DHT22;38372;52.902;6.024;2023-03-30T12:29:16;16.40;99.90
52459;DHT22;38372;52.902;6.024;2023-03-30T12:32:03;16.30;99.90
52459;DHT22;38372;52.902;6.024;2023-03-30T12:34:35;16.10;99.90
52459;DHT22;38372;52.902;6.024;2023-03-30T12:39:45;16.00;99.90
52459;DHT22;38372;52.902;6.024;2023-03-30T12:42:23;15.80;99.90
52459;DHT22;38372;52.902;6.024;2023-03-30T12:50:31;16.40;99.90
52459;DHT22;38372;52.902;6.024;2023-03-30T12:53:13;16.10;99.90
52459;DHT22;38372;52.902;6.024;2023-03-30T12:56:04;15.80;99.90
52459;DHT22;38372;52.902;6.024;2023-03-30T13:04:20;15.60;99.90
52459;DHT22;38372;52.902;6.024;2023-03-30T13:06:56;15.60;99.90
52459;DHT22;38372;52.902;6.024;2023-03-30T13:27:20;15.30;99.90
52459;DHT22;38372;52.902;6.024;2023-03-30T13:29:57;15.40;99.90
52459;DHT22;38372;52.902;6.024;2023-03-30T13:35:36;15.60;99.90
52459;DHT22;38372;52.902;6.024;2023-03-30T13:52:17;15.30;99.90
52459;DHT22;38372;52.902;6.024;2023-03-30T13:54:45;15.00;99.90
52459;DHT22;38372;52.902;6.024;2023-03-30T13:57:23;14.90;99.90
52459;DHT22;38372;52.902;6.024;2023-03-30T13:59:57;14.80;99.90
52459;DHT22;38372;52.902;6.024;2023-03-30T14:02:28;14.70;99.90
52459;DHT22;38372;52.902;6.024;2023-03-30T14:05:12;14.70;99.90
52459;DHT22;38372;52.902;6.024;2023-03-30T14:07:42;14.80;99.90
52459;DHT22;38372;52.902;6.024;2023-03-30T14:10:17;14.90;99.90
52459;DHT22;38372;52.902;6.024;2023-03-30T14:12:47;15.00;99.90
52459;DHT22;38372;52.902;6.024;2023-03-30T14:15:25;15.10;99.90
52459;DHT22;38372;52.902;6.024;2023-03-30T14:17:57;15.00;99.90
52459;DHT22;38372;52.902;6.024;2023-03-30T14:23:23;15.50;99.90
52459;DHT22;38372;52.902;6.024;2023-03-30T14:26:00;15.50;99.90
52459;DHT22;38372;52.902;6.024;2023-03-30T14:28:26;15.20;99.90
52459;DHT22;38372;52.902;6.024;2023-03-30T14:30:55;14.90;99.90
52459;DHT22;38372;52.902;6.024;2023-03-30T14:33:21;14.80;99.90
52459;DHT22;38372;52.902;6.024;2023-03-30T14:35:56;14.70;99.90
52459;DHT22;38372;52.902;6.024;2023-03-30T14:38:32;14.80;99.90
52459;DHT22;38372;52.902;6.024;2023-03-30T14:41:23;14.90;99.90
52459;DHT22;38372;52.902;6.024;2023-03-30T14:44:00;15.00;99.90
52459;DHT22;38372;52.902;6.024;2023-03-30T14:48:57;15.00;99.90
52459;DHT22;38372;52.902;6.024;2023-03-30T14:51:41;15.20;99.90
52459;DHT22;38372;52.902;6.024;2023-03-30T14:54:13;15.20;99.90
52459;DHT22;38372;52.902;6.024;2023-03-30T14:56:40;15.30;99.90
52459;DHT22;38372;52.902;6.024;2023-03-30T14:59:09;15.30;99.90
52459;DHT22;38372;52.902;6.024;2023-03-30T15:01:36;15.10;99.90
52459;DHT22;38372;52.902;6.024;2023-03-30T15:04:23;15.00;99.90
52459;DHT22;38372;52.902;6.024;2023-03-30T15:06:50;14.90;99.90
52459;DHT22;38372;52.902;6.024;2023-03-30T15:09:23;15.00;99.90
52459;DHT22;38372;52.902;6.024;2023-03-30T15:11:59;15.10;99.90
52459;DHT22;38372;52.902;6.024;2023-03-30T15:14:36;15.10;99.90
52459;DHT22;38372;52.902;6.024;2023-03-30T15:17:24;15.00;99.90
52459;DHT22;38372;52.902;6.024;2023-03-30T15:19:52;14.80;99.90
52459;DHT22;38372;52.902;6.024;2023-03-30T15:25:00;14.80;99.90
52459;DHT22;38372;52.902;6.024;2023-03-30T15:27:27;14.90;99.90
52459;DHT22;38372;52.902;6.024;2023-03-30T15:29:54;15.00;99.90
52459;DHT22;38372;52.902;6.024;2023-03-30T15:32:29;15.10;99.90
52459;DHT22;38372;52.902;6.024;2023-03-30T15:37:33;15.00;99.90
52459;DHT22;38372;52.902;6.024;2023-03-30T15:40:25;14.90;99.90
52459;DHT22;38372;52.902;6.024;2023-03-30T15:42:45;14.80;99.90
52459;DHT22;38372;52.902;6.024;2023-03-30T15:45:15;14.80;99.90
52459;DHT22;38372;52.902;6.024;2023-03-30T15:47:41;14.80;99.90
52459;DHT22;38372;52.902;6.024;2023-03-30T15:50:12;14.80;99.90
52459;DHT22;38372;52.902;6.024;2023-03-30T15:52:42;14.80;99.90
52459;DHT22;38372;52.902;6.024;2023-03-30T15:55:17;14.60;99.90
52459;DHT22;38372;52.902;6.024;2023-03-30T15:57:46;14.50;99.90
52459;DHT22;38372;52.902;6.024;2023-03-30T16:00:18;14.30;99.90
52459;DHT22;38372;52.902;6.024;2023-03-30T16:02:52;14.30;99.90
52459;DHT22;38372;52.902;6.024;2023-03-30T16:05:24;14.20;99.90
52459;DHT22;38372;52.902;6.024;2023-03-30T16:07:51;14.10;99.90
52459;DHT22;38372;52.902;6.024;2023-03-30T16:10:19;14.00;99.90
52459;DHT22;38372;52.902;6.024;2023-03-30T16:12:46;13.90;99.90
52459;DHT22;38372;52.902;6.024;2023-03-30T16:15:32;13.80;99.90
52459;DHT22;38372;52.902;6.024;2023-03-30T16:17:58;13.70;99.90
52459;DHT22;38372;52.902;6.024;2023-03-30T16:20:26;13.60;99.90
52459;DHT22;38372;52.902;6.024;2023-03-30T16:22:53;13.50;99.90
52459;DHT22;38372;52.902;6.024;2023-03-30T16:25:22;13.40;99.90
52459;DHT22;38372;52.902;6.024;2023-03-30T16:27:48;13.30;99.90
52459;DHT22;38372;52.902;6.024;2023-03-30T16:30:22;13.20;99.90
52459;DHT22;38372;52.902;6.024;2023-03-30T16:32:49;13.20;99.90
52459;DHT22;38372;52.902;6.024;2023-03-30T16:35:15;13.10;99.90
52459;DHT22;38372;52.902;6.024;2023-03-30T16:37:41;13.10;99.90
52459;DHT22;38372;52.902;6.024;2023-03-30T16:40:17;13.10;99.90
52459;DHT22;38372;52.902;6.024;2023-03-30T16:42:45;13.00;99.90
52459;DHT22;38372;52.902;6.024;2023-03-30T16:45:11;13.00;99.90
52459;DHT22;38372;52.902;6.024;2023-03-30T16:47:37;13.00;99.90
52459;DHT22;38372;52.902;6.024;2023-03-30T16:50:22;12.90;99.90
52459;DHT22;38372;52.902;6.024;2023-03-30T16:52:48;12.90;99.90
52459;DHT22;38372;52.902;6.024;2023-03-30T16:55:15;12.90;99.90
52459;DHT22;38372;52.902;6.024;2023-03-30T16:57:42;12.80;99.90
52459;DHT22;38372;52.902;6.024;2023-03-30T17:02:38;12.70;99.90
52459;DHT22;38372;52.902;6.024;2023-03-30T17:05:04;12.70;99.90
52459;DHT22;38372;52.902;6.024;2023-03-30T17:07:30;12.70;99.90
52459;DHT22;38372;52.902;6.024;2023-03-30T17:09:56;12.60;99.90
52459;DHT22;38372;52.902;6.024;2023-03-30T17:12:22;12.60;99.90
52459;DHT22;38372;52.902;6.024;2023-03-30T17:14:48;12.60;99.90
52459;DHT22;38372;52.902;6.024;2023-03-30T17:17:13;12.60;99.90
52459;DHT22;38372;52.902;6.024;2023-03-30T17:19:39;12.50;99.90
52459;DHT22;38372;52.902;6.024;2023-03-30T17:22:05;12.50;99.90
52459;DHT22;38372;52.902;6.024;2023-03-30T17:24:32;12.40;99.90
52459;DHT22;38372;52.902;6.024;2023-03-30T17:26:58;12.40;99.90
52459;DHT22;38372;52.902;6.024;2023-03-30T17:29:24;12.40;99.90
52459;DHT22;38372;52.902;6.024;2023-03-30T17:31:50;12.40;99.90
52459;DHT22;38372;52.902;6.024;2023-03-30T17:34:16;12.40;99.90
52459;DHT22;38372;52.902;6.024;2023-03-30T17:36:42;12.40;99.90
52459;DHT22;38372;52.902;6.024;2023-03-30T17:39:11;12.40;99.90
52459;DHT22;38372;52.902;6.024;2023-03-30T17:41:37;12.40;99.90
52459;DHT22;38372;52.902;6.024;2023-03-30T17:44:03;12.30;99.90
52459;DHT22;38372;52.902;6.024;2023-03-30T17:46:29;12.30;99.90
52459;DHT22;38372;52.902;6.024;2023-03-30T17:48:56;12.30;99.90
52459;DHT22;38372;52.902;6.024;2023-03-30T17:51:23;12.30;99.90
52459;DHT22;38372;52.902;6.024;2023-03-30T17:53:49;12.20;99.90
52459;DHT22;38372;52.902;6.024;2023-03-30T17:56:15;12.20;99.90
52459;DHT22;38372;52.902;6.024;2023-03-30T17:58:40;12.20;99.90
52459;DHT22;38372;52.902;6.024;2023-03-30T18:01:07;12.20;99.90
52459;DHT22;38372;52.902;6.024;2023-03-30T18:03:33;12.20;99.90
52459;DHT22;38372;52.902;6.024;2023-03-30T18:06:00;12.20;99.90
52459;DHT22;38372;52.902;6.024;2023-03-30T18:08:27;12.10;99.90
52459;DHT22;38372;52.902;6.024;2023-03-30T18:10:57;12.10;99.90
52459;DHT22;38372;52.902;6.024;2023-03-30T18:13:24;12.10;99.90
52459;DHT22;38372;52.902;6.024;2023-03-30T18:15:53;12.10;99.90
52459;DHT22;38372;52.902;6.024;2023-03-30T18:18:21;12.00;99.90
52459;DHT22;38372;52.902;6.024;2023-03-30T18:20:50;12.00;99.90